Time;durP1;ratioP1;P1;durP2;ratioP2;P2;SDS_P1;SDS_P2;PMS_P1;PMS_P2;Temp;Humidity;BMP_temperature;BMP_pressure;BME280_temperature;BME280_humidity;BME280_pressure;Samples;Min_cycle;Max_cycle;Signal;HPM_P1;HPM_P2
2022/12/28 00:01:25;;;;;;;14.75;6.97;;;;;;;4.26;nan;101303.78;4965789;28;20057;-87
2022/12/28 00:03:51;;;;;;;12.38;6.85;;;;;;;4.21;nan;101300.63;4973843;28;20035;-86
2022/12/28 00:06:18;;;;;;;10.80;7.10;;;;;;;4.19;nan;101300.69;4971599;28;20037;-87
2022/12/28 00:08:44;;;;;;;12.38;6.50;;;;;;;4.18;nan;101301.66;4977617;28;20026;-87
2022/12/28 00:11:15;;;;;;;11.52;6.15;;;;;;;4.15;nan;101299.22;4975475;28;20037;-86
2022/12/28 00:13:40;;;;;;;;;;;;;;;4.15;nan;101298.38;4976998;28;20109;-86
2022/12/28 00:16:17;;;;;;;14.13;6.75;;;;;;;4.17;nan;101292.13;4974155;28;19902;-87
2022/12/28 00:18:42;;;;;;;12.80;6.65;;;;;;;4.19;nan;101286.78;4987462;28;20091;-87
2022/12/28 00:21:07;;;;;;;10.93;6.50;;;;;;;4.24;nan;101279.47;4990154;28;20031;-86
2022/12/28 00:23:33;;;;;;;9.77;6.80;;;;;;;4.25;nan;101274.16;4975087;28;20058;-86
2022/12/28 00:26:09;;;;;;;12.93;6.68;;;;;;;4.24;nan;101262.03;4971669;28;20115;-86
2022/12/28 00:28:35;;;;;;;11.05;6.20;;;;;;;4.27;nan;101255.75;4969133;28;20034;-85
2022/12/28 00:31:00;;;;;;;12.73;7.10;;;;;;;4.30;nan;101260.81;4963804;28;20031;-86
2022/12/28 00:33:26;;;;;;;11.70;5.78;;;;;;;4.34;nan;101258.81;4970852;28;20051;-86
2022/12/28 00:35:53;;;;;;;11.57;6.25;;;;;;;4.36;nan;101251.72;4964513;28;20058;-86
2022/12/28 00:38:18;;;;;;;10.57;6.00;;;;;;;4.37;nan;101243.78;4967641;28;20035;-85
2022/12/28 00:40:43;;;;;;;8.40;5.50;;;;;;;4.39;nan;101238.47;4972590;28;20090;-86
2022/12/28 00:43:09;;;;;;;10.55;5.78;;;;;;;4.42;nan;101241.72;4975934;28;20063;-86
2022/12/28 00:45:34;;;;;;;11.15;4.80;;;;;;;4.48;nan;101240.47;4971403;28;20035;-85
2022/12/28 00:47:59;;;;;;;9.95;5.10;;;;;;;4.52;nan;101241.16;4968980;28;20596;-86
2022/12/28 00:50:25;;;;;;;8.23;5.30;;;;;;;4.60;nan;101238.88;4971574;28;20065;-85
2022/12/28 00:52:50;;;;;;;7.88;4.80;;;;;;;4.62;nan;101232.63;4964109;28;20125;-87
2022/12/28 00:55:15;;;;;;;8.13;4.90;;;;;;;4.66;nan;101234.09;4970382;28;20137;-86
2022/12/28 00:57:40;;;;;;;8.00;4.97;;;;;;;4.70;nan;101228.69;4964008;28;20049;-86
2022/12/28 01:00:06;;;;;;;7.30;4.95;;;;;;;4.74;nan;101217.91;4969566;28;20062;-86
2022/12/28 01:02:31;;;;;;;9.50;5.20;;;;;;;4.74;nan;101202.19;4968144;28;20115;-86
2022/12/28 01:04:56;;;;;;;10.65;5.47;;;;;;;4.78;nan;101201.06;4970053;28;20046;-86
2022/12/28 01:07:22;;;;;;;10.25;5.30;;;;;;;4.73;nan;101192.66;4970369;28;20489;-86
2022/12/28 01:09:47;;;;;;;9.05;5.57;;;;;;;4.78;nan;101193.19;4971312;28;20045;-86
2022/12/28 01:12:12;;;;;;;10.27;4.88;;;;;;;4.75;nan;101189.94;4968743;28;20105;-85
2022/12/28 01:14:38;;;;;;;8.07;4.95;;;;;;;4.78;nan;101177.47;4966990;28;20300;-86
2022/12/28 01:17:03;;;;;;;10.07;5.40;;;;;;;4.76;nan;101170.66;4965871;28;20123;-86
2022/12/28 01:19:28;;;;;;;11.98;4.25;;;;;;;4.76;nan;101166.25;4970137;28;20035;-86
2022/12/28 01:21:53;;;;;;;8.40;5.10;;;;;;;4.82;nan;101168.50;4968878;28;20035;-86
2022/12/28 01:24:19;;;;;;;7.68;4.50;;;;;;;4.87;nan;101161.16;4967514;28;20078;-86
2022/12/28 01:26:44;;;;;;;8.52;4.18;;;;;;;4.89;nan;101151.44;4967108;28;20042;-86
2022/12/28 01:29:09;;;;;;;7.20;4.25;;;;;;;4.93;nan;101152.06;4964197;28;20405;-86
2022/12/28 01:31:35;;;;;;;8.90;4.00;;;;;;;4.96;nan;101159.75;4969851;28;20133;-86
2022/12/28 01:34:01;;;;;;;8.43;4.75;;;;;;;5.00;nan;101153.34;4963422;28;20043;-86
2022/12/28 01:36:33;;;;;;;8.02;4.50;;;;;;;5.04;nan;101143.50;4970262;28;20130;-86
2022/12/28 01:38:59;;;;;;;;;;;;;;;5.08;nan;101145.00;4970151;28;20066;-86
2022/12/28 01:41:27;;;;;;;6.72;4.75;;;;;;;5.11;nan;101144.78;4969537;28;19918;-85
2022/12/28 01:43:52;;;;;;;11.27;5.40;;;;;;;5.14;nan;101139.31;4970605;28;20066;-86
2022/12/28 01:46:55;;;;;;;10.73;5.80;;;;;;;5.13;nan;101132.41;4964238;28;20121;-86
2022/12/28 01:49:37;;;;;;;12.32;6.57;;;;;;;5.10;nan;101140.47;4968568;28;20069;-86
2022/12/28 01:52:12;;;;;;;10.40;6.38;;;;;;;5.10;nan;101136.09;4965082;28;20114;-86
2022/12/28 01:54:42;;;;;;;12.13;6.25;;;;;;;5.18;nan;101137.34;4969723;28;20039;-86
2022/12/28 01:57:08;;;;;;;13.25;5.75;;;;;;;5.23;nan;101136.09;4967875;28;20492;-87
2022/12/28 01:59:38;;;;;;;10.77;6.25;;;;;;;5.20;nan;101130.22;4972654;28;20131;-86
2022/12/28 02:02:04;;;;;;;11.73;6.40;;;;;;;5.22;nan;101131.81;4963059;28;20530;-87
2022/12/28 02:04:29;;;;;;;9.13;5.55;;;;;;;5.23;nan;101133.47;4973424;28;20038;-86
2022/12/28 02:06:55;;;;;;;12.43;6.60;;;;;;;5.20;nan;101117.13;4970201;28;20041;-86
2022/12/28 02:09:28;;;;;;;9.57;6.22;;;;;;;5.18;nan;101105.91;4966298;28;20045;-86
2022/12/28 02:11:54;;;;;;;8.48;5.78;;;;;;;5.16;nan;101097.28;4972482;28;20031;-86
2022/12/28 02:14:20;;;;;;;11.25;6.35;;;;;;;5.19;nan;101097.06;4972635;28;20043;-86
2022/12/28 02:16:45;;;;;;;12.57;6.40;;;;;;;5.17;nan;101086.69;4965786;28;20047;-86
2022/12/28 02:19:17;;;;;;;10.20;5.88;;;;;;;5.16;nan;101082.38;4970425;28;20034;-86
2022/12/28 02:21:51;;;;;;;11.95;6.25;;;;;;;5.16;nan;101079.78;4972198;28;20034;-86
2022/12/28 02:24:19;;;;;;;9.85;6.20;;;;;;;5.16;nan;101095.50;4967799;28;20097;-86
2022/12/28 02:26:52;;;;;;;8.70;5.53;;;;;;;5.14;nan;101097.38;4964823;28;20085;-86
2022/12/28 02:29:29;;;;;;;8.32;4.90;;;;;;;5.16;nan;101095.50;4970457;28;20038;-85
2022/12/28 02:32:33;;;;;;;7.60;4.65;;;;;;;5.21;nan;101113.53;4970106;28;20047;-85
2022/12/28 02:35:11;;;;;;;9.02;4.93;;;;;;;5.20;nan;101101.41;4983457;28;20081;-85
2022/12/28 02:38:27;;;;;;;11.45;5.10;;;;;;;5.23;nan;101104.63;4970073;28;20039;-86
2022/12/28 02:41:00;;;;;;;8.27;4.85;;;;;;;5.21;nan;101101.28;4968946;28;20094;-85
2022/12/28 02:43:26;;;;;;;8.98;4.75;;;;;;;5.24;nan;101092.34;4962260;28;20039;-86
2022/12/28 02:52:06;;;;;;;6.43;3.95;;;;;;;5.29;nan;101098.13;4969797;28;20105;-85
2022/12/28 02:57:59;;;;;;;9.65;3.85;;;;;;;5.37;nan;101081.91;4968785;28;20103;-85
2022/12/28 03:00:28;;;;;;;6.38;3.80;;;;;;;5.39;nan;101080.84;4966673;28;20082;-86
2022/12/28 03:03:18;;;;;;;6.35;3.63;;;;;;;5.36;nan;101074.94;4965724;28;20548;-86
2022/12/28 03:09:28;;;;;;;7.70;4.40;;;;;;;5.30;nan;101050.84;4966708;28;20127;-86
2022/12/28 03:12:11;;;;;;;8.65;4.25;;;;;;;5.30;nan;101050.00;4967276;28;20066;-85
2022/12/28 03:14:52;;;;;;;6.00;4.00;;;;;;;5.30;nan;101050.84;4968586;28;20042;-86
2022/12/28 03:31:23;;;;;;;5.35;3.55;;;;;;;5.30;nan;101027.22;4965764;28;20049;-85
2022/12/28 03:33:52;;;;;;;7.95;3.63;;;;;;;5.30;nan;101039.50;4972050;28;20046;-85
2022/12/28 03:36:35;;;;;;;9.48;4.00;;;;;;;5.31;nan;101033.31;4973531;28;20035;-86
2022/12/28 03:39:18;;;;;;;8.57;3.58;;;;;;;5.27;nan;101031.88;4968176;28;20039;-85
2022/12/28 03:44:39;;;;;;;7.35;4.18;;;;;;;5.26;nan;101017.88;4972182;28;20506;-86
2022/12/28 03:47:10;;;;;;;7.32;3.90;;;;;;;5.27;nan;101024.00;4972607;28;20035;-86
2022/12/28 03:49:36;;;;;;;6.35;3.70;;;;;;;5.27;nan;101019.59;4967821;28;20078;-86
2022/12/28 03:52:02;;;;;;;7.82;3.92;;;;;;;5.28;nan;101016.00;4969354;28;20030;-86
2022/12/28 03:54:27;;;;;;;7.30;4.03;;;;;;;5.25;nan;101010.16;4974291;28;20043;-85
2022/12/28 03:56:53;;;;;;;8.50;3.70;;;;;;;5.25;nan;101008.34;4966314;28;20589;-86
2022/12/28 03:59:18;;;;;;;6.55;3.83;;;;;;;5.26;nan;100996.09;4973964;28;20045;-85
2022/12/28 04:01:43;;;;;;;7.53;3.80;;;;;;;5.25;nan;100989.19;4971343;28;20043;-85
2022/12/28 04:04:09;;;;;;;6.97;3.78;;;;;;;5.27;nan;100987.28;4974041;28;20117;-86
2022/12/28 04:06:35;;;;;;;6.30;3.72;;;;;;;5.30;nan;100994.94;4965757;28;20027;-86
2022/12/28 04:09:01;;;;;;;5.60;3.85;;;;;;;5.28;nan;100981.91;4961596;28;20577;-86
2022/12/28 04:11:26;;;;;;;5.80;3.53;;;;;;;5.26;nan;100985.59;4968530;28;20031;-85
2022/12/28 04:13:52;;;;;;;5.68;3.85;;;;;;;5.26;nan;100975.94;4972762;28;20064;-86
2022/12/28 04:16:17;;;;;;;4.95;3.20;;;;;;;5.25;nan;100982.13;4972170;28;20031;-86
2022/12/28 04:18:43;;;;;;;5.82;3.50;;;;;;;5.29;nan;100978.38;4973640;28;20034;-85
2022/12/28 04:21:10;;;;;;;5.70;3.13;;;;;;;5.25;nan;100963.78;4963843;28;20085;-86
2022/12/28 04:23:35;;;;;;;6.05;3.45;;;;;;;5.29;nan;100960.00;4976636;28;20106;-85
2022/12/28 04:26:03;;;;;;;4.97;3.30;;;;;;;5.35;nan;100960.53;4963091;28;20035;-85
2022/12/28 04:28:30;;;;;;;5.95;3.35;;;;;;;5.41;nan;100958.31;4970294;28;20489;-86
2022/12/28 04:30:57;;;;;;;7.05;3.42;;;;;;;5.36;nan;100949.91;4970685;28;20038;-86
2022/12/28 04:33:22;;;;;;;6.97;3.30;;;;;;;5.39;nan;100964.63;4964352;28;20571;-85
2022/12/28 04:35:48;;;;;;;5.70;3.13;;;;;;;5.47;nan;100959.66;4970379;28;20047;-85
2022/12/28 04:38:13;;;;;;;5.18;3.35;;;;;;;5.51;nan;100950.63;4971736;28;20050;-86
2022/12/28 04:40:39;;;;;;;5.75;3.40;;;;;;;5.47;nan;100962.28;4967114;28;20043;-86
2022/12/28 04:43:04;;;;;;;7.03;2.90;;;;;;;5.49;nan;100958.59;4959538;28;20028;-86
2022/12/28 04:45:29;;;;;;;6.80;3.55;;;;;;;5.50;nan;100959.44;4971059;28;20085;-86
2022/12/28 04:47:58;;;;;;;5.97;2.92;;;;;;;5.50;nan;100959.44;4969559;28;20387;-86
2022/12/28 04:50:25;;;;;;;5.68;3.05;;;;;;;5.52;nan;100957.53;4969379;28;20552;-86
2022/12/28 04:52:50;;;;;;;4.65;2.90;;;;;;;5.57;nan;100971.16;4968131;28;20036;-85
2022/12/28 04:55:16;;;;;;;4.65;2.88;;;;;;;5.58;nan;100967.63;4961210;28;20045;-85
2022/12/28 04:57:45;;;;;;;4.30;2.85;;;;;;;5.65;nan;100960.13;4965963;28;20037;-85
2022/12/28 05:00:11;;;;;;;6.50;3.03;;;;;;;5.62;nan;100963.81;4973947;28;20117;-86
2022/12/28 05:02:36;;;;;;;5.40;2.90;;;;;;;5.64;nan;100958.47;4964254;28;20028;-86
2022/12/28 05:05:02;;;;;;;5.10;2.90;;;;;;;5.62;nan;100955.09;4968315;28;20448;-85
2022/12/28 05:07:27;;;;;;;4.68;2.60;;;;;;;5.63;nan;100959.44;4966752;28;20035;-86
2022/12/28 05:09:53;;;;;;;4.63;2.42;;;;;;;5.66;nan;100957.41;4964238;28;20071;-84
2022/12/28 05:12:18;;;;;;;3.55;2.63;;;;;;;5.68;nan;100963.38;4970348;28;20512;-86
2022/12/28 05:14:44;;;;;;;4.63;2.47;;;;;;;5.67;nan;100966.09;4965744;28;20046;-85
2022/12/28 05:17:09;;;;;;;4.68;2.40;;;;;;;5.67;nan;100956.47;4963661;28;20030;-86
2022/12/28 05:19:34;;;;;;;4.35;2.50;;;;;;;5.70;nan;100956.25;4965652;28;20413;-85
2022/12/28 05:22:00;;;;;;;4.50;2.35;;;;;;;5.64;nan;100953.22;4971227;28;20053;-86
2022/12/28 05:24:25;;;;;;;4.10;2.25;;;;;;;5.65;nan;100953.13;4970380;28;20047;-85
2022/12/28 05:26:50;;;;;;;4.28;2.60;;;;;;;5.64;nan;100948.81;4971130;28;20050;-87
2022/12/28 05:29:15;;;;;;;3.85;2.67;;;;;;;5.67;nan;100932.88;4970766;28;20125;-86
2022/12/28 05:31:41;;;;;;;3.95;2.10;;;;;;;5.65;nan;100934.75;4961633;28;20553;-86
2022/12/28 05:34:06;;;;;;;5.20;2.67;;;;;;;5.70;nan;100929.19;4969257;28;20035;-86
2022/12/28 05:36:35;;;;;;;7.55;3.00;;;;;;;5.64;nan;100919.13;4965904;28;20046;-85
2022/12/28 05:39:01;;;;;;;5.80;2.50;;;;;;;5.62;nan;100913.97;4976978;28;20122;-86
2022/12/28 05:41:27;;;;;;;4.97;2.47;;;;;;;5.64;nan;100914.69;4968921;28;20572;-86
2022/12/28 05:43:54;;;;;;;4.55;2.60;;;;;;;5.67;nan;100908.38;4965824;28;20030;-86
2022/12/28 05:46:24;;;;;;;6.72;2.50;;;;;;;5.66;nan;100915.44;4964680;28;20035;-86
2022/12/28 05:48:50;;;;;;;5.03;2.28;;;;;;;5.65;nan;100916.38;4969672;28;20045;-86
2022/12/28 05:51:19;;;;;;;4.72;2.53;;;;;;;5.62;nan;100913.13;4970691;28;20114;-86
2022/12/28 05:53:44;;;;;;;3.83;2.22;;;;;;;5.65;nan;100902.41;4970739;28;20039;-86
2022/12/28 05:56:22;;;;;;;4.85;1.90;;;;;;;5.68;nan;100905.66;4971275;28;20130;-85
2022/12/28 05:58:56;;;;;;;4.80;2.35;;;;;;;5.64;nan;100888.47;4972393;28;20035;-85
2022/12/28 06:01:23;;;;;;;3.88;2.00;;;;;;;5.67;nan;100901.38;4970158;28;20031;-86
2022/12/28 06:03:59;;;;;;;4.30;2.30;;;;;;;5.67;nan;100898.75;4971474;28;20544;-85
2022/12/28 06:06:25;;;;;;;2.30;1.90;;;;;;;5.67;nan;100904.00;4962766;28;20053;-85
2022/12/28 06:08:51;;;;;;;3.42;1.90;;;;;;;5.73;nan;100893.03;4966715;28;20042;-85
2022/12/28 06:11:18;;;;;;;3.80;2.28;;;;;;;5.69;nan;100888.13;4968239;28;20089;-85
2022/12/28 06:13:44;;;;;;;4.55;1.98;;;;;;;5.69;nan;100902.09;4962204;28;20039;-86
2022/12/28 06:16:15;;;;;;;4.70;2.15;;;;;;;5.70;nan;100892.44;4968863;28;20031;-86
2022/12/28 06:18:41;;;;;;;3.50;1.95;;;;;;;5.69;nan;100904.69;4965305;28;20035;-86
2022/12/28 06:21:10;;;;;;;5.03;1.90;;;;;;;5.70;nan;100900.31;4972534;28;20031;-86
2022/12/28 06:23:35;;;;;;;5.47;2.22;;;;;;;5.67;nan;100888.25;4965164;28;20035;-84
2022/12/28 06:26:03;;;;;;;4.18;1.80;;;;;;;5.70;nan;100889.81;4973268;28;20041;-86
2022/12/28 06:28:28;;;;;;;4.75;2.30;;;;;;;5.69;nan;100896.84;4969962;28;20545;-86
2022/12/28 06:31:05;;;;;;;3.60;2.03;;;;;;;5.69;nan;100891.59;4971692;28;20058;-86
2022/12/28 06:33:31;;;;;;;4.00;1.83;;;;;;;5.71;nan;100881.81;4988470;28;20033;-86
2022/12/28 06:35:56;;;;;;;4.78;1.83;;;;;;;5.68;nan;100887.31;4989585;28;20046;-86
2022/12/28 06:38:22;;;;;;;3.55;1.90;;;;;;;5.70;nan;100880.16;4988882;28;20102;-86
2022/12/28 06:40:47;;;;;;;3.85;1.73;;;;;;;5.70;nan;100882.78;4972619;28;20508;-85
2022/12/28 06:43:12;;;;;;;2.85;1.75;;;;;;;5.72;nan;100873.00;4965300;28;20049;-85
2022/12/28 06:45:38;;;;;;;4.30;1.88;;;;;;;5.70;nan;100874.91;4968614;28;20042;-85
2022/12/28 06:48:03;;;;;;;2.30;1.73;;;;;;;5.75;nan;100864.91;4972813;28;20115;-85
2022/12/28 06:50:28;;;;;;;4.03;2.33;;;;;;;5.77;nan;100869.19;4974175;28;20027;-86
2022/12/28 06:52:54;;;;;;;4.05;1.70;;;;;;;5.78;nan;100858.59;4974487;28;20066;-85
2022/12/28 06:55:19;;;;;;;4.57;1.88;;;;;;;5.80;nan;100863.75;4974620;28;20039;-85
2022/12/28 06:57:44;;;;;;;2.70;1.70;;;;;;;5.81;nan;100861.00;4973822;28;20050;-86
2022/12/28 07:00:10;;;;;;;5.35;2.20;;;;;;;5.81;nan;100861.00;4968459;28;20125;-85
2022/12/28 07:02:35;;;;;;;2.92;1.83;;;;;;;5.84;nan;100859.91;4968705;28;20409;-85
2022/12/28 07:05:01;;;;;;;3.17;1.77;;;;;;;5.86;nan;100858.84;4985571;28;20038;-85
2022/12/28 07:07:26;;;;;;;3.13;1.70;;;;;;;5.89;nan;100852.56;4971800;28;20039;-87
2022/12/28 07:09:51;;;;;;;2.83;2.00;;;;;;;5.90;nan;100854.22;4974681;28;20042;-87
2022/12/28 07:12:17;;;;;;;4.00;2.00;;;;;;;5.91;nan;100855.91;4976410;28;20043;-86
2022/12/28 07:14:42;;;;;;;3.90;1.63;;;;;;;5.92;nan;100849.72;4975215;28;20034;-87
2022/12/28 07:17:07;;;;;;;4.35;1.90;;;;;;;5.93;nan;100848.75;4968764;28;20030;-86
2022/12/28 07:19:33;;;;;;;3.17;1.45;;;;;;;5.92;nan;100853.16;4976445;28;20027;-87
2022/12/28 07:21:58;;;;;;;3.88;2.05;;;;;;;5.96;nan;100851.19;4975415;28;20062;-86
2022/12/28 07:24:23;;;;;;;2.90;1.60;;;;;;;5.98;nan;100862.41;4975920;28;20034;-86
2022/12/28 07:26:48;;;;;;;4.07;1.83;;;;;;;5.95;nan;100858.22;4977127;28;20042;-86
2022/12/28 07:29:14;;;;;;;3.03;1.85;;;;;;;5.93;nan;100859.25;4973929;28;20046;-86
2022/12/28 07:31:39;;;;;;;3.78;1.65;;;;;;;5.92;nan;100862.84;4973605;28;20412;-86
2022/12/28 07:34:05;;;;;;;3.00;1.67;;;;;;;5.95;nan;100849.50;4973336;28;20126;-86
2022/12/28 07:36:31;;;;;;;4.35;1.80;;;;;;;5.95;nan;100849.50;4972613;28;20077;-86
2022/12/28 07:38:57;;;;;;;4.82;1.90;;;;;;;5.99;nan;100847.50;4971256;28;20035;-86
2022/12/28 07:41:34;;;;;;;3.00;1.70;;;;;;;5.99;nan;100855.38;4971268;28;20039;-85
2022/12/28 07:44:00;;;;;;;3.97;1.70;;;;;;;6.00;nan;100847.38;4967607;28;20473;-86
2022/12/28 07:46:34;;;;;;;3.13;1.60;;;;;;;6.01;nan;100841.19;4975827;28;20073;-86
2022/12/28 07:48:59;;;;;;;2.97;1.60;;;;;;;6.05;nan;100847.88;4967170;28;20038;-86
2022/12/28 07:51:30;;;;;;;3.30;1.70;;;;;;;6.09;nan;100841.44;4968032;28;20035;-86
2022/12/28 07:53:57;;;;;;;2.63;1.38;;;;;;;6.10;nan;100840.50;4975205;28;20035;-85
2022/12/28 07:56:25;;;;;;;2.50;1.45;;;;;;;6.12;nan;100849.06;4975326;28;20026;-86
2022/12/28 07:58:52;;;;;;;4.45;1.73;;;;;;;6.16;nan;100847.06;4974314;28;20034;-86
2022/12/28 08:01:19;;;;;;;4.63;1.60;;;;;;;6.17;nan;100835.59;4971577;28;20070;-86
2022/12/28 08:03:45;;;;;;;2.95;1.65;;;;;;;6.19;nan;100832.88;4975626;28;20038;-86
2022/12/28 08:06:18;;;;;;;2.83;1.23;;;;;;;6.23;nan;100834.31;4960300;28;20557;-86
2022/12/28 08:08:45;;;;;;;2.38;1.30;;;;;;;6.25;nan;100833.25;4964512;28;20034;-87
2022/12/28 08:11:13;;;;;;;4.22;1.70;;;;;;;6.29;nan;100828.59;4973880;28;20513;-87
2022/12/28 08:13:40;;;;;;;5.10;1.55;;;;;;;6.30;nan;100825.03;4972761;28;20069;-87
2022/12/28 08:16:06;;;;;;;2.17;1.35;;;;;;;6.33;nan;100830.03;4958654;28;20035;-87
2022/12/28 08:18:32;;;;;;;2.80;1.33;;;;;;;6.32;nan;100823.97;4974629;28;20034;-86
2022/12/28 08:21:03;;;;;;;2.00;1.30;;;;;;;6.37;nan;100816.56;4968335;28;20026;-86
2022/12/28 08:23:30;;;;;;;4.13;1.30;;;;;;;6.39;nan;100816.44;4974493;28;20290;-87
2022/12/28 08:26:04;;;;;;;2.88;1.50;;;;;;;6.43;nan;100817.03;4973643;28;20038;-87
2022/12/28 08:28:29;;;;;;;3.53;1.40;;;;;;;6.47;nan;100823.72;4990000;28;20054;-87
2022/12/28 08:30:54;;;;;;;2.45;1.40;;;;;;;6.47;nan;100827.19;4974321;28;20039;-87
2022/12/28 08:33:20;;;;;;;3.03;1.40;;;;;;;6.54;nan;100822.31;4974885;28;20046;-87
2022/12/28 08:35:45;;;;;;;3.83;1.33;;;;;;;6.56;nan;100813.34;4967885;28;20134;-87
2022/12/28 08:38:10;;;;;;;2.63;1.48;;;;;;;6.60;nan;100811.31;4967565;28;20085;-87
2022/12/28 08:40:35;;;;;;;4.68;1.73;;;;;;;6.66;nan;100815.28;4972514;28;20490;-87
2022/12/28 08:43:01;;;;;;;3.20;1.40;;;;;;;6.72;nan;100807.75;4972491;28;20039;-87
2022/12/28 08:45:27;;;;;;;7.43;1.55;;;;;;;6.78;nan;100815.13;4974107;28;20035;-86
2022/12/28 08:47:52;;;;;;;4.85;1.42;;;;;;;6.83;nan;100813.94;4982622;28;20027;-87
2022/12/28 08:50:18;;;;;;;2.65;1.30;;;;;;;6.85;nan;100804.97;4993082;28;20086;-87
2022/12/28 08:52:44;;;;;;;2.83;1.33;;;;;;;6.87;nan;100810.97;4996685;28;20102;-87
2022/12/28 08:55:09;;;;;;;2.17;1.13;;;;;;;6.95;nan;100802.47;4997439;28;20066;-87
2022/12/28 08:57:34;;;;;;;3.38;1.38;;;;;;;6.98;nan;100810.09;4997848;28;20027;-89
2022/12/28 09:00:00;;;;;;;3.88;1.20;;;;;;;7.02;nan;100809.72;4997893;28;20026;-89
2022/12/28 09:02:25;;;;;;;3.13;1.38;;;;;;;7.05;nan;100815.72;4993608;28;20437;-87
2022/12/28 09:04:50;;;;;;;2.13;1.20;;;;;;;7.03;nan;100813.19;4977931;28;20042;-87
2022/12/28 09:07:15;;;;;;;2.97;1.48;;;;;;;7.01;nan;100808.06;4974299;28;20031;-86
2022/12/28 09:09:40;;;;;;;3.42;1.20;;;;;;;7.09;nan;100810.09;4973676;28;20039;-86
2022/12/28 09:12:06;;;;;;;2.03;1.10;;;;;;;7.15;nan;100812.25;4973545;28;20042;-87
2022/12/28 09:14:32;;;;;;;2.05;1.10;;;;;;;7.26;nan;100818.44;4973680;28;20096;-86
2022/12/28 09:16:57;;;;;;;2.88;1.20;;;;;;;7.30;nan;100814.59;4973361;28;20125;-86
2022/12/28 09:19:23;;;;;;;5.60;1.10;;;;;;;7.35;nan;100813.25;4973436;28;20443;-87
2022/12/28 09:21:51;;;;;;;2.85;1.20;;;;;;;7.44;nan;100811.69;4971943;28;20038;-87
2022/12/28 09:24:16;;;;;;;2.78;1.30;;;;;;;7.50;nan;100811.19;4971200;28;20030;-88
2022/12/28 09:26:41;;;;;;;2.42;1.10;;;;;;;7.51;nan;100804.09;4973301;28;20046;-87
2022/12/28 09:29:11;;;;;;;2.90;1.25;;;;;;;7.54;nan;100817.03;4959841;28;20465;-87
2022/12/28 09:31:38;;;;;;;3.10;1.38;;;;;;;7.53;nan;100808.31;4970409;28;20031;-86
2022/12/28 09:34:05;;;;;;;2.22;1.20;;;;;;;7.53;nan;100816.22;4972661;28;20106;-86
2022/12/28 09:36:39;;;;;;;2.80;1.10;;;;;;;7.51;nan;100798.84;4968085;28;20031;-87
2022/12/28 09:39:12;;;;;;;2.20;1.00;;;;;;;7.52;nan;100800.53;4971829;28;20171;-86
2022/12/28 09:42:00;;;;;;;2.55;1.20;;;;;;;7.56;nan;100799.34;4977880;28;20386;-85
2022/12/28 09:45:17;;;;;;;2.38;1.20;;;;;;;7.61;nan;100800.63;4972996;28;20062;-85
2022/12/28 09:47:49;;;;;;;2.78;1.40;;;;;;;7.63;nan;100795.25;4966288;28;20556;-85
2022/12/28 09:50:15;;;;;;;2.90;1.00;;;;;;;7.70;nan;100801.66;4971736;28;20054;-85
2022/12/28 09:53:18;;;;;;;5.85;1.20;;;;;;;7.73;nan;100787.41;4973644;28;20035;-86
2022/12/28 09:56:18;;;;;;;3.03;1.17;;;;;;;7.80;nan;100780.69;4971962;28;20046;-86
2022/12/28 09:58:44;;;;;;;5.97;1.63;;;;;;;7.82;nan;100779.59;4973158;28;20049;-87
2022/12/28 10:01:13;;;;;;;1.98;1.17;;;;;;;7.87;nan;100776.56;4962380;28;20358;-86
2022/12/28 10:03:40;;;;;;;;;;;;;;;7.99;nan;100779.97;4970014;28;20497;-86
2022/12/28 10:06:19;;;;;;;3.30;1.30;;;;;;;8.04;nan;100783.06;4969461;28;19914;-87
2022/12/28 10:08:49;;;;;;;2.08;1.20;;;;;;;8.17;nan;100778.41;4969955;28;20039;-86
2022/12/28 10:11:19;;;;;;;2.80;1.15;;;;;;;8.31;nan;100782.50;4971477;28;20038;-86
2022/12/28 10:13:44;;;;;;;3.63;1.20;;;;;;;8.44;nan;100769.16;4963287;28;20046;-86
2022/12/28 10:16:18;;;;;;;2.65;1.15;;;;;;;8.48;nan;100781.09;4965982;28;20560;-86
2022/12/28 10:18:44;;;;;;;3.45;1.45;;;;;;;8.50;nan;100771.25;4970326;28;20039;-87
2022/12/28 10:21:10;;;;;;;3.67;1.40;;;;;;;8.47;nan;100769.72;4970370;28;20129;-86
2022/12/28 10:23:39;;;;;;;2.30;1.20;;;;;;;8.50;nan;100780.00;4970055;28;20508;-86
2022/12/28 10:26:05;;;;;;;3.30;1.10;;;;;;;8.54;nan;100764.75;4968966;28;20035;-86
2022/12/28 10:28:42;;;;;;;3.25;1.40;;;;;;;8.77;nan;100762.78;4969414;28;20710;-85
2022/12/28 10:31:09;;;;;;;;;;;;;;;8.98;nan;100756.56;4970123;28;20031;-86
2022/12/28 10:33:40;;;;;;;4.53;1.65;;;;;;;9.02;nan;100757.97;4962969;28;19921;-86
2022/12/28 10:36:12;;;;;;;3.47;1.30;;;;;;;9.02;nan;100748.25;4964478;28;20032;-85
2022/12/28 10:38:42;;;;;;;3.60;1.13;;;;;;;9.04;nan;100756.03;4959822;28;20027;-85
2022/12/28 10:41:16;;;;;;;2.45;1.10;;;;;;;8.99;nan;100732.69;4971050;28;20026;-85
2022/12/28 10:43:45;;;;;;;2.30;1.23;;;;;;;8.96;nan;100740.84;4961831;28;20031;-86
2022/12/28 10:46:17;;;;;;;4.05;1.27;;;;;;;8.98;nan;100732.81;4962824;28;20646;-86
2022/12/28 10:48:45;;;;;;;;;;;;;;;9.05;nan;100732.13;4970643;28;20039;-86
2022/12/28 10:51:22;;;;;;;3.30;1.10;;;;;;;9.21;nan;100725.50;4969826;28;20013;-86
2022/12/28 10:53:50;;;;;;;3.55;1.27;;;;;;;9.31;nan;100716.59;4969690;28;20049;-86
2022/12/28 10:56:43;;;;;;;3.35;1.30;;;;;;;9.38;nan;100703.69;4961882;28;20085;-86
2022/12/28 10:59:08;;;;;;;3.22;1.10;;;;;;;9.55;nan;100715.34;4974699;28;20969;-86
2022/12/28 11:01:34;;;;;;;2.73;1.10;;;;;;;9.52;nan;100702.44;4960961;28;20099;-86
2022/12/28 11:04:06;;;;;;;3.23;1.30;;;;;;;9.68;nan;100693.94;4970024;28;20404;-86
2022/12/28 11:06:34;;;;;;;3.03;1.17;;;;;;;9.60;nan;100696.44;4971815;28;20538;-87
2022/12/28 11:09:26;;;;;;;3.20;1.20;;;;;;;9.62;nan;100695.31;4961181;28;20122;-87
2022/12/28 11:11:53;;;;;;;2.92;1.30;;;;;;;9.59;nan;100686.88;4968435;28;20263;-87
2022/12/28 11:14:34;;;;;;;2.88;1.20;;;;;;;9.54;nan;100685.47;4969916;28;20061;-86
2022/12/28 11:17:17;;;;;;;3.40;1.40;;;;;;;9.63;nan;100677.66;4961607;28;20621;-87
2022/12/28 11:19:42;;;;;;;2.65;1.10;;;;;;;9.76;nan;100683.50;4962532;28;20700;-86
2022/12/28 11:22:12;;;;;;;2.75;1.20;;;;;;;9.83;nan;100678.47;4968290;28;20071;-86
2022/12/28 11:24:39;;;;;;;3.53;1.30;;;;;;;9.91;nan;100678.59;4963586;28;22201;-85
2022/12/28 11:27:04;;;;;;;3.13;1.60;;;;;;;9.93;nan;100674.81;4968055;28;20193;-86
2022/12/28 11:29:30;;;;;;;2.20;1.30;;;;;;;9.87;nan;100666.66;4964679;28;20402;-86
2022/12/28 11:32:04;;;;;;;2.33;1.20;;;;;;;9.78;nan;100665.69;4972244;28;20369;-86
2022/12/28 11:34:30;;;;;;;2.97;1.40;;;;;;;9.62;nan;100655.72;4966938;28;20421;-86
2022/12/28 11:36:56;;;;;;;3.10;1.40;;;;;;;9.65;nan;100665.16;4970533;28;20031;-86
2022/12/28 11:39:24;;;;;;;3.22;1.23;;;;;;;9.59;nan;100656.03;4973198;28;20034;-86
2022/12/28 11:41:51;;;;;;;2.95;1.48;;;;;;;9.57;nan;100655.31;4975392;28;20130;-86
2022/12/28 11:44:22;;;;;;;3.72;1.30;;;;;;;9.55;nan;100650.19;4976821;28;20066;-86
2022/12/28 11:47:00;;;;;;;4.50;1.48;;;;;;;9.63;nan;100640.72;4991497;28;20142;-86
2022/12/28 11:49:31;;;;;;;2.72;1.60;;;;;;;9.57;nan;100640.31;4975081;28;20035;-86
2022/12/28 11:52:16;;;;;;;2.60;1.30;;;;;;;9.56;nan;100641.28;4977212;28;20138;-86
2022/12/28 11:55:22;;;;;;;5.78;1.15;;;;;;;9.65;nan;100641.41;4972729;28;20121;-86
2022/12/28 11:57:47;;;;;;;2.25;1.20;;;;;;;9.68;nan;100643.78;4973112;28;20051;-86
2022/12/28 12:00:15;;;;;;;5.32;1.58;;;;;;;9.70;nan;100636.53;4973212;28;20114;-86
2022/12/28 12:02:46;;;;;;;3.63;1.45;;;;;;;9.72;nan;100630.13;4980705;28;20035;-86
2022/12/28 12:05:37;;;;;;;3.75;1.02;;;;;;;9.80;nan;100618.88;4965002;28;20023;-86
2022/12/28 12:08:12;;;;;;;4.93;1.20;;;;;;;9.76;nan;100618.31;4965543;28;20527;-87
2022/12/28 12:10:40;;;;;;;2.42;1.30;;;;;;;9.76;nan;100614.84;4970300;28;20062;-86
2022/12/28 12:13:43;;;;;;;2.55;1.10;;;;;;;9.71;nan;100619.72;4965353;28;20162;-86
2022/12/28 12:16:20;;;;;;;3.65;1.20;;;;;;;9.60;nan;100607.50;4984994;28;20271;-86
2022/12/28 12:18:49;;;;;;;2.13;1.15;;;;;;;9.54;nan;100594.91;4972551;28;20035;-87
2022/12/28 12:21:33;;;;;;;3.08;1.30;;;;;;;9.54;nan;100585.16;4969838;28;20412;-88
2022/12/28 12:24:25;;;;;;;2.47;1.20;;;;;;;9.51;nan;100590.75;4960211;28;20035;-88
2022/12/28 12:26:57;;;;;;;3.70;1.30;;;;;;;9.54;nan;100584.34;4972155;28;20058;-86
2022/12/28 12:29:32;;;;;;;2.33;1.10;;;;;;;9.57;nan;100584.88;4971314;28;20031;-87
2022/12/28 12:32:02;;;;;;;3.50;1.35;;;;;;;9.53;nan;100578.22;4969564;28;20043;-87